Beltnes — V2EG7 — position and weather

sailwx.info

Track history (hours):
 
Tides and Currents Weather Stations Pressure Air Temp Water Temp Dewpoint Dewpoint Depression Visibility Wind Speed Wind Dir Waves Ship Positions

Beltnes

Last reported at 2018-Apr-20 23:43 UTC. Time now 2018-Apr-21 00:18 UTC.
Position N 54°07' E 011°08'.

Length 176 m; draft 7.3 m.

Type: Cargo ship. MMSI: 305426000.

Date/timePositionNaut miles runAvg speedWind from/ knotsBaromVisibWave heightAir tempDewpointWater temp
2018-Apr-20 23:43N 54°07' E 011°08'313.2
2018-Apr-20 23:31N 54°09' E 011°10'713.4
2018-Apr-20 22:57N 54°15' E 011°17'613.7
2018-Apr-20 22:30N 54°21' E 011°22'613.0
2018-Apr-20 22:00N 54°28' E 011°23'713.5
2018-Apr-20 21:31N 54°33' E 011°17'713.4
2018-Apr-20 21:00N 54°35' E 011°06'713.9
2018-Apr-20 20:31N 54°35' E 010°54'713.9
2018-Apr-20 20:01N 54°34' E 010°42'713.4
2018-Apr-20 19:30N 54°32' E 010°31'912.1
2018-Apr-20 18:44N 54°28' E 010°16'312.9
2018-Apr-20 18:30N 54°26' E 010°13'4 0.4
2018-Apr-20 07:59N 54°22' E 010°10'2 5.0
2018-Apr-20 07:30N 54°24' E 010°12'4 7.5
2018-Apr-20 07:00N 54°27' E 010°14'610.4
2018-Apr-20 06:26N 54°30' E 010°24'4 8.9
2018-Apr-20 06:00N 54°33' E 010°28'510.0
2018-Apr-20 05:30N 54°35' E 010°35'612.2
2018-Apr-20 05:00N 54°39' E 010°43'611.7
2018-Apr-20 04:30N 54°44' E 010°47'612.0
2018-Apr-20 04:00N 54°50' E 010°50'612.4
2018-Apr-20 03:30N 54°56' E 010°53'611.8
2018-Apr-20 03:00N 55°01' E 010°59'612.1
2018-Apr-20 02:30N 55°07' E 010°59'611.2
2018-Apr-20 02:00N 55°12' E 011°04'510.6
2018-Apr-20 01:30N 55°17' E 011°03'711.8
2018-Apr-20 00:56N 55°23' E 011°00'1712.3
2018-Apr-19 23:32N 55°39' E 010°46'312.4
2018-Apr-19 23:18N 55°42' E 010°47'412.3
2018-Apr-19 23:00N 55°45' E 010°48'711.7
2018-Apr-19 22:23N 55°52' E 010°52'5012.0
2018-Apr-19 18:12N 56°35' E 011°41'311.7
2018-Apr-19 17:59N 56°37' E 011°43'912.1
2018-Apr-19 17:14N 56°45' E 011°51'312.0
2018-Apr-19 16:59N 56°48' E 011°49'612.8
2018-Apr-19 16:30N 56°54' E 011°45'1012.3
2018-Apr-19 15:40N 57°03' E 011°39'212.0
2018-Apr-19 15:30N 57°05' E 011°38'611.9
2018-Apr-19 15:00N 57°11' E 011°35'611.9
2018-Apr-19 14:30N 57°16' E 011°31'612.1
2018-Apr-19 14:00N 57°22' E 011°28'611.9
2018-Apr-19 13:30N 57°28' E 011°24'611.7
2018-Apr-19 13:00N 57°32' E 011°16'612.0
2018-Apr-19 12:30N 57°36' E 011°08'612.3
2018-Apr-19 12:00N 57°40' E 010°60'612.1
2018-Apr-19 11:30N 57°44' E 010°51'612.0
2018-Apr-19 11:00N 57°47' E 010°41'713.0
2018-Apr-19 10:30N 57°47' E 010°29'1912.8
2018-Apr-19 09:03N 57°46' E 009°54'212.9
2018-Apr-19 08:56N 57°46' E 009°51'2213.1
2018-Apr-19 07:17N 57°44' E 009°11'2712.7
2018-Apr-19 05:09N 57°43' E 008°20'312.3
2018-Apr-19 04:52N 57°43' E 008°14'1512.2
2018-Apr-19 03:40N 57°42' E 007°46'212.0
2018-Apr-19 03:30N 57°43' E 007°42'612.0
2018-Apr-19 03:00N 57°43' E 007°31'611.6
2018-Apr-19 02:30N 57°43' E 007°20'611.5
2018-Apr-19 01:59N 57°43' E 007°10'611.7
2018-Apr-19 01:27N 57°44' E 006°58'811.2
2018-Apr-19 00:43N 57°44' E 006°42'210.7
2018-Apr-19 00:30N 57°44' E 006°38'510.1
2018-Apr-18 23:59N 57°47' E 006°30'510.3
2018-Apr-18 23:29N 57°50' E 006°22'510.8
2018-Apr-18 23:00N 57°54' E 006°15'611.3
2018-Apr-18 22:30N 57°58' E 006°07'612.0
2018-Apr-18 21:59N 58°01' E 005°58'1212.1
2018-Apr-18 21:00N 58°09' E 005°41'612.5
2018-Apr-18 20:30N 58°13' E 005°32'1012.1
2018-Apr-18 19:42N 58°19' E 005°18'211.7
2018-Apr-18 19:30N 58°21' E 005°15'612.6
2018-Apr-18 19:00N 58°27' E 005°15'612.0
2018-Apr-18 18:30N 58°33' E 005°16'611.8
2018-Apr-18 17:59N 58°39' E 005°17'611.4
2018-Apr-18 17:30N 58°45' E 005°17'611.4
2018-Apr-18 17:00N 58°51' E 005°17'611.5
2018-Apr-18 16:30N 58°56' E 005°18'612.5
2018-Apr-18 16:00N 59°03' E 005°18'611.2
2018-Apr-18 15:30N 59°07' E 005°25'510.0
2018-Apr-18 15:00N 59°10' E 005°32'612.1
2018-Apr-18 14:30N 59°15' E 005°41'612.1
2018-Apr-18 14:00N 59°19' E 005°50'611.9
2018-Apr-18 13:30N 59°21' E 006°00'2 3.7
2018-Apr-18 12:58N 59°23' E 006°03'0 0.0
2018-Apr-18 12:28N 59°23' E 006°03'0 0.0
2018-Apr-18 11:58N 59°23' E 006°03'0 0.0
2018-Apr-18 11:28N 59°23' E 006°03'0 0.0
2018-Apr-18 10:58N 59°23' E 006°03'0 0.1
2018-Apr-18 10:28N 59°23' E 006°03'0 0.0
2018-Apr-18 09:58N 59°23' E 006°03'0 0.0
2018-Apr-18 09:28N 59°23' E 006°03'0 0.0
2018-Apr-18 08:58N 59°23' E 006°03'0 0.0
2018-Apr-18 08:28N 59°23' E 006°03'0 0.0
2018-Apr-18 07:55N 59°23' E 006°03'0 0.0
2018-Apr-18 07:28N 59°23' E 006°03'0 0.1
2018-Apr-18 06:58N 59°23' E 006°03'0 0.0
2018-Apr-18 06:28N 59°23' E 006°03'0 0.0
2018-Apr-18 05:58N 59°23' E 006°03'0 0.0
2018-Apr-18 05:28N 59°23' E 006°03'0 0.0
2018-Apr-18 04:58N 59°23' E 006°03'0 0.0
2018-Apr-18 04:28N 59°23' E 006°03'0 0.0
2018-Apr-18 03:58N 59°23' E 006°03'0 0.0
2018-Apr-18 03:28N 59°23' E 006°03'0 0.0
2018-Apr-18 02:58N 59°23' E 006°03'0 0.0
2018-Apr-18 02:28N 59°23' E 006°03'0 0.0
2018-Apr-18 01:58N 59°23' E 006°03'0 0.0
2018-Apr-18 01:28N 59°23' E 006°03'0 0.0
2018-Apr-18 00:58N 59°23' E 006°03'0 0.0
2018-Apr-18 00:28N 59°23' E 006°03'0 0.0
2018-Apr-17 23:58N 59°23' E 006°03'0 0.0
2018-Apr-17 23:28N 59°23' E 006°03'0 0.0
2018-Apr-17 22:58N 59°23' E 006°03'0 0.0
2018-Apr-17 22:28N 59°23' E 006°03'0 0.0
2018-Apr-17 21:58N 59°23' E 006°03'0 0.0
2018-Apr-17 21:28N 59°23' E 006°03'0 0.0
2018-Apr-17 20:58N 59°23' E 006°03'0 0.0
2018-Apr-17 20:28N 59°23' E 006°03'0 0.0
2018-Apr-17 19:58N 59°23' E 006°03'0 0.1
2018-Apr-17 19:28N 59°23' E 006°03'0 0.0
2018-Apr-17 18:58N 59°23' E 006°03'0 0.0
2018-Apr-17 18:28N 59°23' E 006°03'0 0.0
2018-Apr-17 17:58N 59°23' E 006°03'0 0.0
2018-Apr-17 17:28N 59°23' E 006°03'0 0.1
2018-Apr-17 16:58N 59°23' E 006°03'0 0.0
2018-Apr-17 16:28N 59°23' E 006°03'0 0.7
2018-Apr-17 16:00N 59°22' E 006°02'4 8.4
2018-Apr-17 15:29N 59°20' E 005°55'713.7
2018-Apr-17 15:00N 59°16' E 005°44'714.0
2018-Apr-17 14:30N 59°11' E 005°36'713.4
2018-Apr-17 14:00N 59°06' E 005°26'611.3
2018-Apr-17 13:30N 59°02' E 005°20'713.3
2018-Apr-17 13:00N 58°55' E 005°20'713.4
2018-Apr-17 12:30N 58°48' E 005°20'713.7
2018-Apr-17 12:00N 58°42' E 005°21'713.8
2018-Apr-17 11:30N 58°35' E 005°20'714.1
2018-Apr-17 11:00N 58°28' E 005°20'713.4
2018-Apr-17 10:28N 58°21' E 005°24'714.0
2018-Apr-17 10:00N 58°15' E 005°29'28012.9
2018-Apr-16 12:17N 53°36' E 004°49'412.6
2018-Apr-16 12:00N 53°32' E 004°47'2012.4
2018-Apr-16 10:22N 53°14' E 004°34'512.3
2018-Apr-16 10:00N 53°10' E 004°30'2612.3
2018-Apr-16 07:52N 52°46' E 004°10'512.4
2018-Apr-16 07:27N 52°42' E 004°06'712.6
2018-Apr-16 06:56N 52°36' E 004°00'612.9
2018-Apr-16 06:28N 52°31' E 003°55'613.2
2018-Apr-16 06:00N 52°25' E 003°53'713.5
2018-Apr-16 05:30N 52°19' E 003°52'713.6
2018-Apr-16 05:00N 52°12' E 003°54'713.8
2018-Apr-16 04:30N 52°05' E 003°55'4 7.4
2018-Apr-16 04:00N 52°02' E 003°57'612.3
2018-Apr-16 03:30N 51°58' E 004°05'1 2.3
2018-Apr-16 03:00N 51°57' E 004°05'0 0.0
2018-Apr-16 02:29N 51°57' E 004°05'0 0.0
2018-Apr-16 01:59N 51°57' E 004°05'0 0.0
2018-Apr-16 01:29N 51°57' E 004°05'0 0.0
2018-Apr-16 00:59N 51°57' E 004°05'0 0.0
2018-Apr-16 00:29N 51°57' E 004°05'0 0.0
2018-Apr-15 23:59N 51°57' E 004°05'0 0.0
2018-Apr-15 23:29N 51°57' E 004°05'0 0.0
2018-Apr-15 22:59N 51°57' E 004°05'0 0.0
2018-Apr-15 22:26N 51°57' E 004°05'0 0.0
2018-Apr-15 21:59N 51°57' E 004°05'0 0.0
2018-Apr-15 21:29N 51°57' E 004°05'0 0.0
2018-Apr-15 20:59N 51°57' E 004°05'0 0.0
2018-Apr-15 20:26N 51°57' E 004°05'0 0.0
2018-Apr-15 19:59N 51°57' E 004°05'0 0.0
2018-Apr-15 19:26N 51°57' E 004°05'0 0.0
2018-Apr-15 18:59N 51°57' E 004°05'0 0.0
2018-Apr-15 18:29N 51°57' E 004°05'0 0.0
2018-Apr-15 17:59N 51°57' E 004°05'0 0.0
2018-Apr-15 17:29N 51°57' E 004°05'0 0.0
2018-Apr-15 16:59N 51°57' E 004°05'0 0.0
2018-Apr-15 16:29N 51°57' E 004°05'0 0.0
2018-Apr-15 15:56N 51°57' E 004°05'0 0.0
2018-Apr-15 15:29N 51°57' E 004°05'0 0.0
2018-Apr-15 14:59N 51°57' E 004°05'0 0.0
2018-Apr-15 14:30N 51°57' E 004°05'0 0.0
2018-Apr-15 14:00N 51°57' E 004°05'0 0.0
2018-Apr-15 13:30N 51°57' E 004°05'0 0.0
2018-Apr-15 13:00N 51°57' E 004°05'0 0.0
2018-Apr-15 12:30N 51°57' E 004°05'0 0.3
2018-Apr-15 12:00N 51°57' E 004°05'4 8.4
2018-Apr-15 11:30N 51°60' E 003°59'611.0
2018-Apr-15 11:00N 52°00' E 003°50'3 6.8
2018-Apr-15 10:30N 52°03' E 003°47'510.4
2018-Apr-15 10:00N 52°08' E 003°45'1 0.3
2018-Apr-15 07:29N 52°09' E 003°44'0 0.1
2018-Apr-15 06:50N 52°09' E 003°44'0 0.1
2018-Apr-15 06:14N 52°09' E 003°44'0 0.1
2018-Apr-15 05:53N 52°09' E 003°44'0 0.2
2018-Apr-15 05:29N 52°09' E 003°44'0 0.1
2018-Apr-15 04:53N 52°09' E 003°44'0 0.2
2018-Apr-15 04:26N 52°09' E 003°44'1 1.3
2018-Apr-15 04:00N 52°09' E 003°44'3 6.4
2018-Apr-15 03:29N 52°13' E 003°45'3 6.3
2018-Apr-15 03:00N 52°15' E 003°47'4 8.3
2018-Apr-15 02:30N 52°20' E 003°48'510.3
2018-Apr-15 02:00N 52°24' E 003°50'611.0
2018-Apr-15 01:30N 52°30' E 003°52'710.8
2018-Apr-15 00:53N 52°36' E 003°57'711.9
2018-Apr-15 00:18N 52°43' E 003°57'512.1
2018-Apr-14 23:55N 52°47' E 003°57'512.3
2018-Apr-14 23:30N 52°53' E 003°57'611.7
2018-Apr-14 23:00N 52°58' E 004°00'712.8
2018-Apr-14 22:28N 53°02' E 004°09'613.1
2018-Apr-14 22:00N 53°06' E 004°17'713.4
2018-Apr-14 21:31N 53°12' E 004°24'713.4
2018-Apr-14 21:00N 53°18' E 004°28'713.1
2018-Apr-14 20:29N 53°24' E 004°32'6912.1
2018-Apr-14 14:44N 54°30' E 005°08'311.9
2018-Apr-14 14:30N 54°33' E 005°09'612.2
2018-Apr-14 14:00N 54°39' E 005°12'612.2
2018-Apr-14 13:29N 54°45' E 005°15'712.1
2018-Apr-14 12:56N 54°51' E 005°17'712.1
2018-Apr-14 12:23N 54°58' E 005°20'20211.6
2018-Apr-13 18:58N 58°20' E 005°11'711.2
2018-Apr-13 18:22N 58°26' E 005°11'411.2
2018-Apr-13 17:59N 58°31' E 005°12'511.1
2018-Apr-13 17:30N 58°36' E 005°12'510.3
2018-Apr-13 17:00N 58°41' E 005°13'510.0
2018-Apr-13 16:30N 58°46' E 005°14'510.0
2018-Apr-13 15:59N 58°51' E 005°16'510.6
2018-Apr-13 15:30N 58°56' E 005°18'511.0
2018-Apr-13 15:00N 59°02' E 005°18'510.2
2018-Apr-13 14:30N 59°06' E 005°23'5 9.7
2018-Apr-13 14:00N 59°10' E 005°30'612.2
2018-Apr-13 13:30N 59°14' E 005°38'712.7
2018-Apr-13 12:59N 59°18' E 005°48'612.4
2018-Apr-13 12:29N 59°21' E 005°59'3 5.4
2018-Apr-13 11:59N 59°23' E 006°03'0 0.0
2018-Apr-13 11:26N 59°23' E 006°03'0 0.0
2018-Apr-13 10:59N 59°23' E 006°03'0 0.0
2018-Apr-13 10:29N 59°23' E 006°03'0 0.0
2018-Apr-13 09:56N 59°23' E 006°03'0 0.0
2018-Apr-13 09:29N 59°23' E 006°03'0 0.0
2018-Apr-13 08:59N 59°23' E 006°03'0 0.0
2018-Apr-13 08:29N 59°23' E 006°03'0 0.0
2018-Apr-13 07:59N 59°23' E 006°03'0 0.0
2018-Apr-13 07:29N 59°23' E 006°03'0 0.1
2018-Apr-13 06:59N 59°23' E 006°03'0 0.0
2018-Apr-13 06:29N 59°23' E 006°03'0 0.0
2018-Apr-13 05:59N 59°23' E 006°03'0 0.0
2018-Apr-13 05:29N 59°23' E 006°03'0 0.0
2018-Apr-13 04:59N 59°23' E 006°03'0 0.0
2018-Apr-13 04:29N 59°23' E 006°03'0 0.0
2018-Apr-13 03:59N 59°23' E 006°03'0 0.0
2018-Apr-13 03:29N 59°23' E 006°03'0 0.1
2018-Apr-13 02:59N 59°23' E 006°03'0 0.0
2018-Apr-13 02:29N 59°23' E 006°03'0 0.0
2018-Apr-13 01:59N 59°23' E 006°03'0 0.0
2018-Apr-13 01:29N 59°23' E 006°03'0 0.0
2018-Apr-13 00:59N 59°23' E 006°03'0 0.1
2018-Apr-13 00:29N 59°23' E 006°03'0 0.0
2018-Apr-12 23:59N 59°23' E 006°03'0 0.0
2018-Apr-12 23:29N 59°23' E 006°03'0 0.0
2018-Apr-12 22:59N 59°23' E 006°03'0 0.0
2018-Apr-12 22:29N 59°23' E 006°03'0 0.0
2018-Apr-12 21:59N 59°23' E 006°03'0 0.0
2018-Apr-12 21:30N 59°23' E 006°03'0 0.0
2018-Apr-12 21:00N 59°23' E 006°03'0 0.1
2018-Apr-12 20:29N 59°23' E 006°03'2 3.3
2018-Apr-12 20:00N 59°22' E 006°00'611.7
2018-Apr-12 19:30N 59°19' E 005°50'712.8
2018-Apr-12 18:59N 59°14' E 005°41'713.4
2018-Apr-12 18:30N 59°09' E 005°32'5 9.9
2018-Apr-12 18:00N 59°06' E 005°25'3 6.0
2018-Apr-12 17:30N 59°04' E 005°21'4 8.1
2018-Apr-12 17:00N 59°00' E 005°20'4 8.0
2018-Apr-12 16:30N 58°56' E 005°19'5 9.0
2018-Apr-12 16:00N 58°52' E 005°18'611.8
2018-Apr-12 15:30N 58°46' E 005°19'611.6
2018-Apr-12 15:00N 58°40' E 005°20'611.8
2018-Apr-12 14:30N 58°34' E 005°21'612.6
2018-Apr-12 14:00N 58°28' E 005°22'611.1
2018-Apr-12 13:30N 58°22' E 005°25'611.4
2018-Apr-12 13:00N 58°19' E 005°33'611.8
2018-Apr-12 12:30N 58°15' E 005°42'612.6
2018-Apr-12 12:00N 58°11' E 005°51'612.3
2018-Apr-12 11:30N 58°07' E 006°00'612.0
2018-Apr-12 11:00N 58°03' E 006°09'613.0
2018-Apr-12 10:30N 57°59' E 006°18'612.6
2018-Apr-12 10:00N 57°55' E 006°27'712.8
2018-Apr-12 09:29N 57°50' E 006°36'612.2
2018-Apr-12 08:59N 57°49' E 006°47'714.0
2018-Apr-12 08:30N 57°49' E 006°60'814.7
2018-Apr-12 07:59N 57°48' E 007°14'714.5
2018-Apr-12 07:30N 57°48' E 007°27'612.8
2018-Apr-12 07:00N 57°47' E 007°39'612.7
2018-Apr-12 06:30N 57°47' E 007°51'612.5
2018-Apr-12 06:01N 57°47' E 008°03'612.8
2018-Apr-12 05:30N 57°48' E 008°15'4714.0
2018-Apr-12 02:07N 57°49' E 009°44'314.2
2018-Apr-12 01:56N 57°49' E 009°49'914.4
2018-Apr-12 01:20N 57°48' E 010°05'514.4
2018-Apr-12 01:00N 57°48' E 010°14'714.5
2018-Apr-12 00:30N 57°48' E 010°27'714.4
2018-Apr-12 00:00N 57°48' E 010°41'713.2
2018-Apr-11 23:30N 57°45' E 010°52'713.8
2018-Apr-11 23:01N 57°41' E 011°02'714.0
2018-Apr-11 22:30N 57°36' E 011°12'713.6
2018-Apr-11 22:00N 57°31' E 011°21'713.5
2018-Apr-11 21:31N 57°26' E 011°27'713.8
2018-Apr-11 21:01N 57°19' E 011°32'713.8
2018-Apr-11 20:30N 57°13' E 011°37'713.8
2018-Apr-11 20:01N 57°06' E 011°40'713.6
2018-Apr-11 19:28N 56°59' E 011°45'4812.8
2018-Apr-11 15:42N 56°14' E 012°16'512.5
2018-Apr-11 15:18N 56°11' E 012°24'414.4
2018-Apr-11 15:00N 56°09' E 012°30'815.4
2018-Apr-11 14:31N 56°03' E 012°39'713.9
2018-Apr-11 14:01N 55°57' E 012°43'713.8
2018-Apr-11 13:31N 55°50' E 012°44'714.0
2018-Apr-11 13:01N 55°43' E 012°41'714.8
2018-Apr-11 12:31N 55°36' E 012°42'510.1
2018-Apr-11 12:00N 55°31' E 012°43'713.8
2018-Apr-11 11:30N 55°24' E 012°41'612.3
2018-Apr-11 11:00N 55°18' E 012°44'714.3
2018-Apr-11 10:30N 55°15' E 012°56'814.1
2018-Apr-11 09:55N 55°15' E 013°11'614.3
2018-Apr-11 09:28N 55°14' E 013°22'1014.5
2018-Apr-11 08:45N 55°14' E 013°40'1214.1
2018-Apr-11 07:55N 55°14' E 014°01'613.7
2018-Apr-11 07:29N 55°14' E 014°11'712.6
2018-Apr-11 06:58N 55°17' E 014°21'1013.5
2018-Apr-11 06:12N 55°25' E 014°33'313.7
2018-Apr-11 06:00N 55°27' E 014°37'612.7
2018-Apr-11 05:30N 55°26' E 014°48'713.1
2018-Apr-11 05:00N 55°25' E 014°59'713.2
2018-Apr-11 04:30N 55°25' E 015°11'713.1
2018-Apr-11 04:00N 55°24' E 015°22'713.2
2018-Apr-11 03:27N 55°22' E 015°35'613.1
2018-Apr-11 02:58N 55°21' E 015°46'2613.0
2018-Apr-11 00:56N 55°15' E 016°31'712.7
2018-Apr-11 00:25N 55°14' E 016°43'712.7
2018-Apr-10 23:51N 55°13' E 016°55'  
Track history (hours):
 
Tides and Currents Weather Stations Pressure Air Temp Water Temp Dewpoint Dewpoint Depression Visibility Wind Speed Wind Dir Waves Ship Positions

Beltnes

Last reported at 2018-Apr-20 23:43 UTC. Time now 2018-Apr-21 00:18 UTC.
Position N 54°07' E 011°08'.

Length 176 m; draft 7.3 m.

Type: Cargo ship. MMSI: 305426000.

Date/timePositionNaut miles runAvg speedWind from/ knotsBaromVisibWave heightAir tempDewpointWater temp
2018-Apr-20 23:43N 54°07' E 011°08'313.2
2018-Apr-20 23:31N 54°09' E 011°10'713.4
2018-Apr-20 22:57N 54°15' E 011°17'613.7
2018-Apr-20 22:30N 54°21' E 011°22'613.0
2018-Apr-20 22:00N 54°28' E 011°23'713.5
2018-Apr-20 21:31N 54°33' E 011°17'713.4
2018-Apr-20 21:00N 54°35' E 011°06'713.9
2018-Apr-20 20:31N 54°35' E 010°54'713.9
2018-Apr-20 20:01N 54°34' E 010°42'713.4
2018-Apr-20 19:30N 54°32' E 010°31'912.1
2018-Apr-20 18:44N 54°28' E 010°16'312.9
2018-Apr-20 18:30N 54°26' E 010°13'4 0.4
2018-Apr-20 07:59N 54°22' E 010°10'2 5.0
2018-Apr-20 07:30N 54°24' E 010°12'4 7.5
2018-Apr-20 07:00N 54°27' E 010°14'610.4
2018-Apr-20 06:26N 54°30' E 010°24'4 8.9
2018-Apr-20 06:00N 54°33' E 010°28'510.0
2018-Apr-20 05:30N 54°35' E 010°35'612.2
2018-Apr-20 05:00N 54°39' E 010°43'611.7
2018-Apr-20 04:30N 54°44' E 010°47'612.0
2018-Apr-20 04:00N 54°50' E 010°50'612.4
2018-Apr-20 03:30N 54°56' E 010°53'611.8
2018-Apr-20 03:00N 55°01' E 010°59'612.1
2018-Apr-20 02:30N 55°07' E 010°59'611.2
2018-Apr-20 02:00N 55°12' E 011°04'510.6
2018-Apr-20 01:30N 55°17' E 011°03'711.8
2018-Apr-20 00:56N 55°23' E 011°00'1712.3
2018-Apr-19 23:32N 55°39' E 010°46'312.4
2018-Apr-19 23:18N 55°42' E 010°47'412.3
2018-Apr-19 23:00N 55°45' E 010°48'711.7
2018-Apr-19 22:23N 55°52' E 010°52'5012.0
2018-Apr-19 18:12N 56°35' E 011°41'311.7
2018-Apr-19 17:59N 56°37' E 011°43'912.1
2018-Apr-19 17:14N 56°45' E 011°51'312.0
2018-Apr-19 16:59N 56°48' E 011°49'612.8
2018-Apr-19 16:30N 56°54' E 011°45'1012.3
2018-Apr-19 15:40N 57°03' E 011°39'212.0
2018-Apr-19 15:30N 57°05' E 011°38'611.9
2018-Apr-19 15:00N 57°11' E 011°35'611.9
2018-Apr-19 14:30N 57°16' E 011°31'612.1
2018-Apr-19 14:00N 57°22' E 011°28'611.9
2018-Apr-19 13:30N 57°28' E 011°24'611.7
2018-Apr-19 13:00N 57°32' E 011°16'612.0
2018-Apr-19 12:30N 57°36' E 011°08'612.3
2018-Apr-19 12:00N 57°40' E 010°60'612.1
2018-Apr-19 11:30N 57°44' E 010°51'612.0
2018-Apr-19 11:00N 57°47' E 010°41'713.0
2018-Apr-19 10:30N 57°47' E 010°29'1912.8
2018-Apr-19 09:03N 57°46' E 009°54'212.9
2018-Apr-19 08:56N 57°46' E 009°51'2213.1
2018-Apr-19 07:17N 57°44' E 009°11'2712.7
2018-Apr-19 05:09N 57°43' E 008°20'312.3
2018-Apr-19 04:52N 57°43' E 008°14'1512.2
2018-Apr-19 03:40N 57°42' E 007°46'212.0
2018-Apr-19 03:30N 57°43' E 007°42'612.0
2018-Apr-19 03:00N 57°43' E 007°31'611.6
2018-Apr-19 02:30N 57°43' E 007°20'611.5
2018-Apr-19 01:59N 57°43' E 007°10'611.7
2018-Apr-19 01:27N 57°44' E 006°58'811.2
2018-Apr-19 00:43N 57°44' E 006°42'210.7
2018-Apr-19 00:30N 57°44' E 006°38'510.1
2018-Apr-18 23:59N 57°47' E 006°30'510.3
2018-Apr-18 23:29N 57°50' E 006°22'510.8
2018-Apr-18 23:00N 57°54' E 006°15'611.3
2018-Apr-18 22:30N 57°58' E 006°07'612.0
2018-Apr-18 21:59N 58°01' E 005°58'1212.1
2018-Apr-18 21:00N 58°09' E 005°41'612.5
2018-Apr-18 20:30N 58°13' E 005°32'1012.1
2018-Apr-18 19:42N 58°19' E 005°18'211.7
2018-Apr-18 19:30N 58°21' E 005°15'612.6
2018-Apr-18 19:00N 58°27' E 005°15'612.0
2018-Apr-18 18:30N 58°33' E 005°16'611.8
2018-Apr-18 17:59N 58°39' E 005°17'611.4
2018-Apr-18 17:30N 58°45' E 005°17'611.4
2018-Apr-18 17:00N 58°51' E 005°17'611.5
2018-Apr-18 16:30N 58°56' E 005°18'612.5
2018-Apr-18 16:00N 59°03' E 005°18'611.2
2018-Apr-18 15:30N 59°07' E 005°25'510.0
2018-Apr-18 15:00N 59°10' E 005°32'612.1
2018-Apr-18 14:30N 59°15' E 005°41'612.1
2018-Apr-18 14:00N 59°19' E 005°50'611.9
2018-Apr-18 13:30N 59°21' E 006°00'2 3.7
2018-Apr-18 12:58N 59°23' E 006°03'0 0.0
2018-Apr-18 12:28N 59°23' E 006°03'0 0.0
2018-Apr-18 11:58N 59°23' E 006°03'0 0.0
2018-Apr-18 11:28N 59°23' E 006°03'0 0.0
2018-Apr-18 10:58N 59°23' E 006°03'0 0.1
2018-Apr-18 10:28N 59°23' E 006°03'0 0.0
2018-Apr-18 09:58N 59°23' E 006°03'0 0.0
2018-Apr-18 09:28N 59°23' E 006°03'0 0.0
2018-Apr-18 08:58N 59°23' E 006°03'0 0.0
2018-Apr-18 08:28N 59°23' E 006°03'0 0.0
2018-Apr-18 07:55N 59°23' E 006°03'0 0.0
2018-Apr-18 07:28N 59°23' E 006°03'0 0.1
2018-Apr-18 06:58N 59°23' E 006°03'0 0.0
2018-Apr-18 06:28N 59°23' E 006°03'0 0.0
2018-Apr-18 05:58N 59°23' E 006°03'0 0.0
2018-Apr-18 05:28N 59°23' E 006°03'0 0.0
2018-Apr-18 04:58N 59°23' E 006°03'0 0.0
2018-Apr-18 04:28N 59°23' E 006°03'0 0.0
2018-Apr-18 03:58N 59°23' E 006°03'0 0.0
2018-Apr-18 03:28N 59°23' E 006°03'0 0.0
2018-Apr-18 02:58N 59°23' E 006°03'0 0.0
2018-Apr-18 02:28N 59°23' E 006°03'0 0.0
2018-Apr-18 01:58N 59°23' E 006°03'0 0.0
2018-Apr-18 01:28N 59°23' E 006°03'0 0.0
2018-Apr-18 00:58N 59°23' E 006°03'0 0.0
2018-Apr-18 00:28N 59°23' E 006°03'0 0.0
2018-Apr-17 23:58N 59°23' E 006°03'0 0.0
2018-Apr-17 23:28N 59°23' E 006°03'0 0.0
2018-Apr-17 22:58N 59°23' E 006°03'0 0.0
2018-Apr-17 22:28N 59°23' E 006°03'0 0.0
2018-Apr-17 21:58N 59°23' E 006°03'0 0.0
2018-Apr-17 21:28N 59°23' E 006°03'0 0.0
2018-Apr-17 20:58N 59°23' E 006°03'0 0.0
2018-Apr-17 20:28N 59°23' E 006°03'0 0.0
2018-Apr-17 19:58N 59°23' E 006°03'0 0.1
2018-Apr-17 19:28N 59°23' E 006°03'0 0.0
2018-Apr-17 18:58N 59°23' E 006°03'0 0.0
2018-Apr-17 18:28N 59°23' E 006°03'0 0.0
2018-Apr-17 17:58N 59°23' E 006°03'0 0.0
2018-Apr-17 17:28N 59°23' E 006°03'0 0.1
2018-Apr-17 16:58N 59°23' E 006°03'0 0.0
2018-Apr-17 16:28N 59°23' E 006°03'0 0.7
2018-Apr-17 16:00N 59°22' E 006°02'4 8.4
2018-Apr-17 15:29N 59°20' E 005°55'713.7
2018-Apr-17 15:00N 59°16' E 005°44'714.0
2018-Apr-17 14:30N 59°11' E 005°36'713.4
2018-Apr-17 14:00N 59°06' E 005°26'611.3
2018-Apr-17 13:30N 59°02' E 005°20'713.3
2018-Apr-17 13:00N 58°55' E 005°20'713.4
2018-Apr-17 12:30N 58°48' E 005°20'713.7
2018-Apr-17 12:00N 58°42' E 005°21'713.8
2018-Apr-17 11:30N 58°35' E 005°20'714.1
2018-Apr-17 11:00N 58°28' E 005°20'713.4
2018-Apr-17 10:28N 58°21' E 005°24'714.0
2018-Apr-17 10:00N 58°15' E 005°29'28012.9
2018-Apr-16 12:17N 53°36' E 004°49'412.6
2018-Apr-16 12:00N 53°32' E 004°47'2012.4
2018-Apr-16 10:22N 53°14' E 004°34'512.3
2018-Apr-16 10:00N 53°10' E 004°30'2612.3
2018-Apr-16 07:52N 52°46' E 004°10'512.4
2018-Apr-16 07:27N 52°42' E 004°06'712.6
2018-Apr-16 06:56N 52°36' E 004°00'612.9
2018-Apr-16 06:28N 52°31' E 003°55'613.2
2018-Apr-16 06:00N 52°25' E 003°53'713.5
2018-Apr-16 05:30N 52°19' E 003°52'713.6
2018-Apr-16 05:00N 52°12' E 003°54'713.8
2018-Apr-16 04:30N 52°05' E 003°55'4 7.4
2018-Apr-16 04:00N 52°02' E 003°57'612.3
2018-Apr-16 03:30N 51°58' E 004°05'1 2.3
2018-Apr-16 03:00N 51°57' E 004°05'0 0.0
2018-Apr-16 02:29N 51°57' E 004°05'0 0.0
2018-Apr-16 01:59N 51°57' E 004°05'0 0.0
2018-Apr-16 01:29N 51°57' E 004°05'0 0.0
2018-Apr-16 00:59N 51°57' E 004°05'0 0.0
2018-Apr-16 00:29N 51°57' E 004°05'0 0.0
2018-Apr-15 23:59N 51°57' E 004°05'0 0.0
2018-Apr-15 23:29N 51°57' E 004°05'0 0.0
2018-Apr-15 22:59N 51°57' E 004°05'0 0.0
2018-Apr-15 22:26N 51°57' E 004°05'0 0.0
2018-Apr-15 21:59N 51°57' E 004°05'0 0.0
2018-Apr-15 21:29N 51°57' E 004°05'0 0.0
2018-Apr-15 20:59N 51°57' E 004°05'0 0.0
2018-Apr-15 20:26N 51°57' E 004°05'0 0.0
2018-Apr-15 19:59N 51°57' E 004°05'0 0.0
2018-Apr-15 19:26N 51°57' E 004°05'0 0.0
2018-Apr-15 18:59N 51°57' E 004°05'0 0.0
2018-Apr-15 18:29N 51°57' E 004°05'0 0.0
2018-Apr-15 17:59N 51°57' E 004°05'0 0.0
2018-Apr-15 17:29N 51°57' E 004°05'0 0.0
2018-Apr-15 16:59N 51°57' E 004°05'0 0.0
2018-Apr-15 16:29N 51°57' E 004°05'0 0.0
2018-Apr-15 15:56N 51°57' E 004°05'0 0.0
2018-Apr-15 15:29N 51°57' E 004°05'0 0.0
2018-Apr-15 14:59N 51°57' E 004°05'0 0.0
2018-Apr-15 14:30N 51°57' E 004°05'0 0.0
2018-Apr-15 14:00N 51°57' E 004°05'0 0.0
2018-Apr-15 13:30N 51°57' E 004°05'0 0.0
2018-Apr-15 13:00N 51°57' E 004°05'0 0.0
2018-Apr-15 12:30N 51°57' E 004°05'0 0.3
2018-Apr-15 12:00N 51°57' E 004°05'4 8.4
2018-Apr-15 11:30N 51°60' E 003°59'611.0
2018-Apr-15 11:00N 52°00' E 003°50'3 6.8
2018-Apr-15 10:30N 52°03' E 003°47'510.4
2018-Apr-15 10:00N 52°08' E 003°45'1 0.3
2018-Apr-15 07:29N 52°09' E 003°44'0 0.1
2018-Apr-15 06:50N 52°09' E 003°44'0 0.1
2018-Apr-15 06:14N 52°09' E 003°44'0 0.1
2018-Apr-15 05:53N 52°09' E 003°44'0 0.2
2018-Apr-15 05:29N 52°09' E 003°44'0 0.1
2018-Apr-15 04:53N 52°09' E 003°44'0 0.2
2018-Apr-15 04:26N 52°09' E 003°44'1 1.3
2018-Apr-15 04:00N 52°09' E 003°44'3 6.4
2018-Apr-15 03:29N 52°13' E 003°45'3 6.3
2018-Apr-15 03:00N 52°15' E 003°47'4 8.3
2018-Apr-15 02:30N 52°20' E 003°48'510.3
2018-Apr-15 02:00N 52°24' E 003°50'611.0
2018-Apr-15 01:30N 52°30' E 003°52'710.8
2018-Apr-15 00:53N 52°36' E 003°57'711.9
2018-Apr-15 00:18N 52°43' E 003°57'512.1
2018-Apr-14 23:55N 52°47' E 003°57'512.3
2018-Apr-14 23:30N 52°53' E 003°57'611.7
2018-Apr-14 23:00N 52°58' E 004°00'712.8
2018-Apr-14 22:28N 53°02' E 004°09'613.1
2018-Apr-14 22:00N 53°06' E 004°17'713.4
2018-Apr-14 21:31N 53°12' E 004°24'713.4
2018-Apr-14 21:00N 53°18' E 004°28'713.1
2018-Apr-14 20:29N 53°24' E 004°32'6912.1
2018-Apr-14 14:44N 54°30' E 005°08'311.9
2018-Apr-14 14:30N 54°33' E 005°09'612.2
2018-Apr-14 14:00N 54°39' E 005°12'612.2
2018-Apr-14 13:29N 54°45' E 005°15'712.1
2018-Apr-14 12:56N 54°51' E 005°17'712.1
2018-Apr-14 12:23N 54°58' E 005°20'20211.6
2018-Apr-13 18:58N 58°20' E 005°11'711.2
2018-Apr-13 18:22N 58°26' E 005°11'411.2
2018-Apr-13 17:59N 58°31' E 005°12'511.1
2018-Apr-13 17:30N 58°36' E 005°12'510.3
2018-Apr-13 17:00N 58°41' E 005°13'510.0
2018-Apr-13 16:30N 58°46' E 005°14'510.0
2018-Apr-13 15:59N 58°51' E 005°16'510.6
2018-Apr-13 15:30N 58°56' E 005°18'511.0
2018-Apr-13 15:00N 59°02' E 005°18'510.2
2018-Apr-13 14:30N 59°06' E 005°23'5 9.7
2018-Apr-13 14:00N 59°10' E 005°30'612.2
2018-Apr-13 13:30N 59°14' E 005°38'712.7
2018-Apr-13 12:59N 59°18' E 005°48'612.4
2018-Apr-13 12:29N 59°21' E 005°59'3 5.4
2018-Apr-13 11:59N 59°23' E 006°03'0 0.0
2018-Apr-13 11:26N 59°23' E 006°03'0 0.0
2018-Apr-13 10:59N 59°23' E 006°03'0 0.0
2018-Apr-13 10:29N 59°23' E 006°03'0 0.0
2018-Apr-13 09:56N 59°23' E 006°03'0 0.0
2018-Apr-13 09:29N 59°23' E 006°03'0 0.0
2018-Apr-13 08:59N 59°23' E 006°03'0 0.0
2018-Apr-13 08:29N 59°23' E 006°03'0 0.0
2018-Apr-13 07:59N 59°23' E 006°03'0 0.0
2018-Apr-13 07:29N 59°23' E 006°03'0 0.1
2018-Apr-13 06:59N 59°23' E 006°03'0 0.0
2018-Apr-13 06:29N 59°23' E 006°03'0 0.0
2018-Apr-13 05:59N 59°23' E 006°03'0 0.0
2018-Apr-13 05:29N 59°23' E 006°03'0 0.0
2018-Apr-13 04:59N 59°23' E 006°03'0 0.0
2018-Apr-13 04:29N 59°23' E 006°03'0 0.0
2018-Apr-13 03:59N 59°23' E 006°03'0 0.0
2018-Apr-13 03:29N 59°23' E 006°03'0 0.1
2018-Apr-13 02:59N 59°23' E 006°03'0 0.0
2018-Apr-13 02:29N 59°23' E 006°03'0 0.0
2018-Apr-13 01:59N 59°23' E 006°03'0 0.0
2018-Apr-13 01:29N 59°23' E 006°03'0 0.0
2018-Apr-13 00:59N 59°23' E 006°03'0 0.1
2018-Apr-13 00:29N 59°23' E 006°03'0 0.0
2018-Apr-12 23:59N 59°23' E 006°03'0 0.0
2018-Apr-12 23:29N 59°23' E 006°03'0 0.0
2018-Apr-12 22:59N 59°23' E 006°03'0 0.0
2018-Apr-12 22:29N 59°23' E 006°03'0 0.0
2018-Apr-12 21:59N 59°23' E 006°03'0 0.0
2018-Apr-12 21:30N 59°23' E 006°03'0 0.0
2018-Apr-12 21:00N 59°23' E 006°03'0 0.1
2018-Apr-12 20:29N 59°23' E 006°03'2 3.3
2018-Apr-12 20:00N 59°22' E 006°00'611.7
2018-Apr-12 19:30N 59°19' E 005°50'712.8
2018-Apr-12 18:59N 59°14' E 005°41'713.4
2018-Apr-12 18:30N 59°09' E 005°32'5 9.9
2018-Apr-12 18:00N 59°06' E 005°25'3 6.0
2018-Apr-12 17:30N 59°04' E 005°21'4 8.1
2018-Apr-12 17:00N 59°00' E 005°20'4 8.0
2018-Apr-12 16:30N 58°56' E 005°19'5 9.0
2018-Apr-12 16:00N 58°52' E 005°18'611.8
2018-Apr-12 15:30N 58°46' E 005°19'611.6
2018-Apr-12 15:00N 58°40' E 005°20'611.8
2018-Apr-12 14:30N 58°34' E 005°21'612.6
2018-Apr-12 14:00N 58°28' E 005°22'611.1
2018-Apr-12 13:30N 58°22' E 005°25'611.4
2018-Apr-12 13:00N 58°19' E 005°33'611.8
2018-Apr-12 12:30N 58°15' E 005°42'612.6
2018-Apr-12 12:00N 58°11' E 005°51'612.3
2018-Apr-12 11:30N 58°07' E 006°00'612.0
2018-Apr-12 11:00N 58°03' E 006°09'613.0
2018-Apr-12 10:30N 57°59' E 006°18'612.6
2018-Apr-12 10:00N 57°55' E 006°27'712.8
2018-Apr-12 09:29N 57°50' E 006°36'612.2
2018-Apr-12 08:59N 57°49' E 006°47'714.0
2018-Apr-12 08:30N 57°49' E 006°60'814.7
2018-Apr-12 07:59N 57°48' E 007°14'714.5
2018-Apr-12 07:30N 57°48' E 007°27'612.8
2018-Apr-12 07:00N 57°47' E 007°39'612.7
2018-Apr-12 06:30N 57°47' E 007°51'612.5
2018-Apr-12 06:01N 57°47' E 008°03'612.8
2018-Apr-12 05:30N 57°48' E 008°15'4714.0
2018-Apr-12 02:07N 57°49' E 009°44'314.2
2018-Apr-12 01:56N 57°49' E 009°49'914.4
2018-Apr-12 01:20N 57°48' E 010°05'514.4
2018-Apr-12 01:00N 57°48' E 010°14'714.5
2018-Apr-12 00:30N 57°48' E 010°27'714.4
2018-Apr-12 00:00N 57°48' E 010°41'713.2
2018-Apr-11 23:30N 57°45' E 010°52'713.8
2018-Apr-11 23:01N 57°41' E 011°02'714.0
2018-Apr-11 22:30N 57°36' E 011°12'713.6
2018-Apr-11 22:00N 57°31' E 011°21'713.5
2018-Apr-11 21:31N 57°26' E 011°27'713.8
2018-Apr-11 21:01N 57°19' E 011°32'713.8
2018-Apr-11 20:30N 57°13' E 011°37'713.8
2018-Apr-11 20:01N 57°06' E 011°40'713.6
2018-Apr-11 19:28N 56°59' E 011°45'4812.8
2018-Apr-11 15:42N 56°14' E 012°16'512.5
2018-Apr-11 15:18N 56°11' E 012°24'414.4
2018-Apr-11 15:00N 56°09' E 012°30'815.4
2018-Apr-11 14:31N 56°03' E 012°39'713.9
2018-Apr-11 14:01N 55°57' E 012°43'713.8
2018-Apr-11 13:31N 55°50' E 012°44'714.0
2018-Apr-11 13:01N 55°43' E 012°41'714.8
2018-Apr-11 12:31N 55°36' E 012°42'510.1
2018-Apr-11 12:00N 55°31' E 012°43'713.8
2018-Apr-11 11:30N 55°24' E 012°41'612.3
2018-Apr-11 11:00N 55°18' E 012°44'714.3
2018-Apr-11 10:30N 55°15' E 012°56'814.1
2018-Apr-11 09:55N 55°15' E 013°11'614.3
2018-Apr-11 09:28N 55°14' E 013°22'1014.5
2018-Apr-11 08:45N 55°14' E 013°40'1214.1
2018-Apr-11 07:55N 55°14' E 014°01'613.7
2018-Apr-11 07:29N 55°14' E 014°11'712.6
2018-Apr-11 06:58N 55°17' E 014°21'1013.5
2018-Apr-11 06:12N 55°25' E 014°33'313.7
2018-Apr-11 06:00N 55°27' E 014°37'612.7
2018-Apr-11 05:30N 55°26' E 014°48'713.1
2018-Apr-11 05:00N 55°25' E 014°59'713.2
2018-Apr-11 04:30N 55°25' E 015°11'713.1
2018-Apr-11 04:00N 55°24' E 015°22'713.2
2018-Apr-11 03:27N 55°22' E 015°35'613.1
2018-Apr-11 02:58N 55°21' E 015°46'2613.0
2018-Apr-11 00:56N 55°15' E 016°31'712.7
2018-Apr-11 00:25N 55°14' E 016°43'712.7
2018-Apr-10 23:51N 55°13' E 016°55'  

Dump ship's entire track history